createdAt,value
2017-12-11T00:00:01.576Z,8.90
2017-12-11T00:02:29.183Z,5.47
2017-12-11T00:04:56.879Z,3.37
2017-12-11T00:07:24.535Z,4.83
2017-12-11T00:09:52.149Z,14.07
2017-12-11T00:12:19.810Z,10.60
2017-12-11T00:14:47.419Z,9.43
2017-12-11T00:17:15.046Z,15.63
2017-12-11T00:19:42.703Z,4.50
2017-12-11T00:22:10.373Z,3.70
2017-12-11T00:24:37.974Z,4.37
2017-12-11T00:27:05.643Z,13.37
2017-12-11T00:29:33.260Z,12.70
2017-12-11T00:32:00.870Z,13.67
2017-12-11T00:34:28.616Z,13.77
2017-12-11T00:36:56.232Z,7.87
2017-12-11T00:39:23.906Z,8.83
2017-12-11T00:41:51.591Z,7.60
2017-12-11T00:44:19.207Z,13.73
2017-12-11T00:46:46.920Z,14.13
2017-12-11T00:49:14.668Z,15.43
2017-12-11T00:51:42.349Z,17.80
2017-12-11T00:54:09.962Z,15.20
2017-12-11T00:56:37.688Z,18.10
2017-12-11T00:59:05.363Z,24.77
2017-12-11T01:01:32.976Z,19.20
2017-12-11T01:04:00.646Z,23.63
2017-12-11T01:06:28.321Z,17.20
2017-12-11T01:08:55.993Z,20.00
2017-12-11T01:11:23.659Z,13.60
2017-12-11T01:13:51.266Z,16.90
2017-12-11T01:16:18.877Z,19.67
2017-12-11T01:18:46.611Z,19.03
2017-12-11T01:21:14.308Z,13.27
2017-12-11T01:23:41.984Z,17.27
2017-12-11T01:26:09.655Z,15.40
2017-12-11T01:28:37.270Z,10.43
2017-12-11T01:31:04.898Z,8.03
2017-12-11T01:33:32.566Z,15.73
2017-12-11T01:36:00.179Z,23.33
2017-12-11T01:38:27.840Z,22.47
2017-12-11T01:40:55.599Z,6.80
2017-12-11T01:43:23.279Z,32.07
2017-12-11T01:45:50.991Z,15.70
2017-12-11T01:48:18.666Z,13.00
2017-12-11T01:50:46.284Z,14.80
2017-12-11T01:53:13.961Z,10.00
2017-12-11T01:55:41.623Z,14.60
2017-12-11T01:58:09.236Z,13.40
2017-12-11T02:00:36.839Z,13.33
2017-12-11T02:03:04.579Z,10.03
2017-12-11T02:05:32.199Z,6.87
2017-12-11T02:07:59.887Z,10.17
2017-12-11T02:10:27.567Z,22.20
2017-12-11T02:12:55.195Z,13.93
2017-12-11T02:15:22.876Z,10.27
2017-12-11T02:17:50.538Z,18.57
2017-12-11T02:20:18.171Z,13.27
2017-12-11T02:22:45.782Z,13.70
2017-12-11T02:25:13.447Z,19.17
2017-12-11T02:27:41.131Z,12.27
2017-12-11T02:30:08.747Z,13.67
2017-12-11T02:32:36.428Z,12.83
2017-12-11T02:35:04.093Z,20.37
2017-12-11T02:37:31.728Z,13.80
2017-12-11T02:39:59.408Z,18.47
2017-12-11T02:42:27.076Z,17.20
2017-12-11T02:44:54.704Z,20.60
2017-12-11T02:47:22.415Z,21.10
2017-12-11T02:49:50.041Z,13.60
2017-12-11T02:52:17.688Z,27.80
2017-12-11T02:54:45.417Z,16.10
2017-12-11T02:57:13.035Z,17.50
2017-12-11T02:59:40.719Z,21.50
2017-12-11T03:02:08.448Z,26.17
2017-12-11T03:04:36.068Z,48.03
2017-12-11T03:07:03.759Z,54.03
2017-12-11T03:09:31.450Z,42.37
2017-12-11T03:11:59.066Z,49.73
2017-12-11T03:14:26.686Z,52.60
2017-12-11T03:16:54.448Z,28.37
2017-12-11T03:19:22.130Z,44.17
2017-12-11T03:21:49.747Z,33.43
2017-12-11T03:24:17.424Z,45.87
2017-12-11T03:26:45.034Z,36.17
2017-12-11T03:29:12.711Z,33.70
2017-12-11T03:31:40.387Z,24.07
2017-12-11T03:34:08.072Z,39.27
2017-12-11T03:36:35.735Z,17.80
2017-12-11T03:39:03.467Z,20.60
2017-12-11T03:41:31.078Z,20.50
2017-12-11T03:43:58.698Z,12.10
2017-12-11T03:46:26.430Z,10.30
2017-12-11T03:48:54.031Z,9.97
2017-12-11T03:51:21.687Z,15.00
2017-12-11T03:53:49.410Z,27.80
2017-12-11T03:56:17.035Z,25.13
2017-12-11T03:58:44.648Z,30.47
2017-12-11T04:01:12.367Z,27.43
2017-12-11T04:03:39.980Z,25.50
2017-12-11T04:06:07.659Z,15.50
2017-12-11T04:08:35.318Z,16.20
2017-12-11T04:11:02.922Z,12.80
2017-12-11T04:13:30.523Z,14.73
2017-12-11T04:15:58.240Z,18.10
2017-12-11T04:18:25.851Z,15.70
2017-12-11T04:20:53.466Z,16.80
2017-12-11T04:23:21.147Z,18.10
2017-12-11T04:25:48.763Z,21.10
2017-12-11T04:28:16.423Z,11.90
2017-12-11T04:30:44.151Z,10.90
2017-12-11T04:33:11.811Z,21.17
2017-12-11T04:35:39.480Z,12.93
2017-12-11T04:38:07.146Z,13.27
2017-12-11T04:40:34.763Z,6.63
2017-12-11T04:43:02.382Z,11.20
2017-12-11T04:45:30.043Z,25.77
2017-12-11T04:47:57.653Z,34.63
2017-12-11T04:50:25.268Z,10.60
2017-12-11T04:52:52.996Z,13.77
2017-12-11T04:55:20.599Z,22.80
2017-12-11T04:57:48.275Z,21.10
2017-12-11T05:00:16.008Z,31.83
2017-12-11T05:02:43.620Z,15.47
2017-12-11T05:05:11.238Z,14.97
2017-12-11T05:07:38.968Z,26.57
2017-12-11T05:10:06.631Z,51.33
2017-12-11T05:12:34.246Z,11.17
2017-12-11T05:15:01.911Z,14.37
2017-12-11T05:17:29.588Z,12.20
2017-12-11T05:19:57.207Z,30.00
2017-12-11T05:22:24.902Z,122.97
2017-12-11T05:24:52.552Z,90.27
2017-12-11T05:27:20.252Z,42.63
2017-12-11T05:29:47.975Z,76.13
2017-12-11T05:32:15.594Z,57.47
2017-12-11T05:34:43.260Z,62.63
2017-12-11T05:37:10.961Z,67.83
2017-12-11T05:39:38.582Z,99.60
2017-12-11T05:42:06.212Z,93.37
2017-12-11T05:44:33.944Z,129.23
2017-12-11T05:47:01.635Z,162.87
2017-12-11T05:49:29.251Z,171.90
2017-12-11T05:51:56.989Z,181.47
2017-12-11T05:54:24.604Z,161.10
2017-12-11T05:56:52.284Z,139.93
2017-12-11T05:59:20.069Z,118.17
2017-12-11T06:01:47.746Z,147.67
2017-12-11T06:04:15.371Z,143.77
2017-12-11T06:06:43.035Z,140.70
2017-12-11T06:09:10.712Z,161.77
2017-12-11T06:11:38.343Z,132.50
2017-12-11T06:14:06.011Z,115.63
2017-12-11T06:16:33.689Z,104.17
2017-12-11T06:19:01.299Z,87.10
2017-12-11T06:21:28.983Z,86.50
2017-12-11T06:23:56.652Z,74.90
2017-12-11T06:26:24.355Z,105.97
2017-12-11T06:28:52.028Z,80.63
2017-12-11T06:31:19.638Z,100.80
2017-12-11T06:33:47.254Z,98.03
2017-12-11T06:36:14.981Z,89.70
2017-12-11T06:38:42.587Z,84.70
2017-12-11T06:41:10.276Z,153.70
2017-12-11T06:43:37.947Z,150.40
2017-12-11T06:46:05.576Z,157.83
2017-12-11T06:48:33.188Z,79.07
2017-12-11T06:51:00.857Z,78.43
2017-12-11T06:53:28.479Z,64.60
2017-12-11T06:55:56.083Z,54.00
2017-12-11T06:58:23.759Z,79.17
2017-12-11T07:00:51.376Z,72.63
2017-12-11T07:03:19.166Z,75.60
2017-12-11T07:05:46.836Z,94.80
2017-12-11T07:08:14.463Z,73.13
2017-12-11T07:10:42.083Z,63.53
2017-12-11T07:13:09.756Z,80.27
2017-12-11T07:15:37.444Z,60.23
2017-12-11T07:18:05.074Z,88.13
2017-12-11T07:20:32.753Z,63.13
2017-12-11T07:23:00.371Z,57.53
2017-12-11T07:25:28.001Z,69.70
2017-12-11T07:27:55.760Z,61.40
2017-12-11T07:30:23.366Z,59.30
2017-12-11T07:32:50.993Z,81.03
2017-12-11T07:35:18.675Z,106.47
2017-12-11T07:37:46.347Z,136.30
2017-12-11T07:40:14.028Z,152.33
2017-12-11T07:42:41.704Z,120.37
2017-12-11T07:45:09.327Z,119.43
2017-12-11T07:47:36.938Z,138.47
2017-12-11T07:50:04.614Z,120.80
2017-12-11T07:52:32.239Z,120.50
2017-12-11T07:54:59.856Z,107.67
2017-12-11T07:57:27.519Z,99.43
2017-12-11T07:59:55.214Z,104.60
2017-12-11T08:02:22.834Z,91.47
2017-12-11T08:04:50.506Z,93.93
2017-12-11T08:07:18.120Z,94.87
2017-12-11T08:09:45.906Z,76.70
2017-12-11T08:12:13.584Z,89.10
2017-12-11T08:14:41.208Z,90.13
2017-12-11T08:17:08.883Z,71.00
2017-12-11T08:19:36.552Z,61.67
2017-12-11T08:22:04.168Z,91.27
2017-12-11T08:24:31.783Z,59.83
2017-12-11T08:26:59.512Z,37.47
2017-12-11T08:29:27.136Z,30.70
2017-12-11T08:31:54.816Z,26.20
2017-12-11T08:34:22.487Z,37.50
2017-12-11T08:36:50.096Z,25.83
2017-12-11T08:39:17.698Z,26.40
2017-12-11T08:41:45.363Z,25.70
2017-12-11T08:44:13.040Z,26.87
2017-12-11T08:46:40.663Z,47.67
2017-12-11T08:49:08.367Z,21.80
2017-12-11T08:51:35.976Z,11.83
2017-12-11T08:54:03.595Z,11.77
2017-12-11T08:56:31.283Z,20.13
2017-12-11T08:58:58.905Z,15.80
2017-12-11T09:01:26.578Z,45.57
2017-12-11T09:03:54.332Z,30.53
2017-12-11T09:06:21.951Z,11.00
2017-12-11T09:08:49.571Z,11.00
2017-12-11T09:11:17.289Z,15.10
2017-12-11T09:13:44.963Z,6.70
2017-12-11T09:16:12.579Z,14.53
2017-12-11T09:18:40.245Z,7.00
2017-12-11T09:21:07.847Z,8.57
2017-12-11T09:23:35.448Z,5.77
2017-12-11T09:26:03.255Z,4.97
2017-12-11T09:28:30.928Z,6.43
2017-12-11T09:30:58.599Z,5.23
2017-12-11T09:33:26.288Z,3.93
2017-12-11T09:35:53.965Z,6.80
2017-12-11T09:38:21.628Z,2.53
2017-12-11T09:40:49.351Z,5.43
2017-12-11T09:43:16.959Z,2.90
2017-12-11T09:45:44.578Z,6.40
2017-12-11T09:48:12.235Z,2.03
2017-12-11T09:50:39.845Z,2.93
2017-12-11T09:53:07.466Z,4.03
2017-12-11T09:55:35.139Z,7.43
2017-12-11T09:58:02.767Z,300.00
2017-12-11T10:00:30.395Z,39.07
2017-12-11T10:02:58.068Z,29.97
2017-12-11T10:05:25.751Z,20.20
2017-12-11T10:07:53.361Z,7.50
2017-12-11T10:10:21.091Z,21.83
2017-12-11T10:12:49.598Z,22.83
2017-12-11T10:15:17.206Z,40.10
2017-12-11T10:17:44.903Z,36.73
2017-12-11T10:20:12.523Z,51.67
2017-12-11T10:22:40.139Z,36.97
2017-12-11T10:25:07.851Z,37.37
2017-12-11T10:27:35.471Z,45.73
2017-12-11T10:30:03.144Z,34.93
2017-12-11T10:32:30.878Z,32.17
2017-12-11T10:34:58.502Z,61.67
2017-12-11T10:37:26.120Z,59.90
2017-12-11T10:39:53.826Z,45.87
2017-12-11T10:42:21.459Z,43.00
2017-12-11T10:44:49.074Z,33.53
2017-12-11T10:47:16.739Z,33.07
2017-12-11T10:49:44.363Z,37.50
2017-12-11T10:52:12.036Z,41.70
2017-12-11T10:54:39.785Z,54.37
2017-12-11T10:57:07.458Z,67.87
2017-12-11T10:59:35.071Z,90.40
2017-12-11T11:02:02.756Z,107.33
2017-12-11T11:04:30.436Z,78.37
2017-12-11T11:06:58.111Z,107.67
2017-12-11T11:09:25.791Z,106.63
2017-12-11T11:11:53.412Z,97.80
2017-12-11T11:14:21.103Z,55.53
2017-12-11T11:16:48.824Z,64.77
2017-12-11T11:19:16.503Z,47.93
2017-12-11T11:21:44.183Z,67.00
2017-12-11T11:24:11.892Z,46.57
2017-12-11T11:26:39.511Z,39.73
2017-12-11T11:29:07.183Z,64.10
2017-12-11T11:31:34.858Z,88.07
2017-12-11T11:34:02.486Z,85.67
2017-12-11T11:36:30.111Z,99.83
2017-12-11T11:38:57.947Z,121.80
2017-12-11T11:41:25.636Z,117.93
2017-12-11T11:43:53.263Z,86.40
2017-12-11T11:46:21.016Z,80.07
2017-12-11T11:48:48.691Z,121.60
2017-12-11T11:51:16.359Z,78.60
2017-12-11T12:05:25.573Z,43.20
2017-12-11T12:07:53.212Z,31.90
2017-12-11T12:10:20.831Z,21.63
2017-12-11T12:12:48.523Z,27.47
2017-12-11T12:15:16.140Z,36.03
2017-12-11T12:17:43.771Z,37.63
2017-12-11T12:20:11.451Z,46.13
2017-12-11T12:25:37.121Z,18.70
2017-12-11T12:28:04.743Z,41.70
2017-12-11T12:30:32.431Z,37.00
2017-12-11T12:33:00.104Z,23.17
2017-12-11T12:35:27.798Z,26.00
2017-12-11T12:37:55.484Z,22.77
2017-12-11T12:40:23.157Z,26.57
2017-12-11T12:42:50.832Z,21.03
2017-12-11T12:45:18.503Z,13.33
2017-12-11T12:47:46.219Z,16.80
2017-12-11T12:50:13.840Z,24.30
2017-12-11T12:52:41.524Z,28.50
2017-12-11T12:55:09.200Z,26.17
2017-12-11T12:57:36.816Z,21.63
2017-12-11T13:00:04.594Z,16.63
2017-12-11T13:02:32.312Z,21.47
2017-12-11T13:04:59.921Z,12.27
2017-12-11T13:07:27.546Z,65.10
2017-12-11T13:09:55.219Z,37.27
2017-12-11T13:12:22.828Z,29.77
2017-12-11T13:14:50.438Z,38.50
2017-12-11T13:17:18.108Z,24.83
2017-12-11T13:19:45.763Z,42.60
2017-12-11T13:22:13.373Z,44.63
2017-12-11T13:24:41.109Z,49.93
2017-12-11T13:27:08.720Z,77.17
2017-12-11T13:29:36.443Z,64.63
2017-12-11T13:32:04.138Z,63.87
2017-12-11T13:34:31.766Z,83.53
2017-12-11T13:36:59.398Z,83.80
2017-12-11T13:39:27.135Z,140.67
2017-12-11T13:41:54.804Z,126.70
2017-12-11T13:44:22.420Z,117.73
2017-12-11T13:46:50.101Z,132.83
2017-12-11T13:49:17.736Z,126.30
2017-12-11T13:51:45.424Z,109.13
2017-12-11T13:54:13.102Z,155.27
2017-12-11T13:56:40.780Z,146.23
2017-12-11T13:59:08.395Z,155.40
2017-12-11T14:01:36.064Z,158.10
2017-12-11T14:04:03.679Z,144.73
2017-12-11T14:06:31.299Z,120.50
2017-12-11T14:08:58.975Z,173.60
2017-12-11T14:11:26.596Z,209.37
2017-12-11T14:13:54.222Z,190.50
2017-12-11T14:16:21.891Z,183.63
2017-12-11T14:18:49.592Z,156.30
2017-12-11T14:21:17.273Z,197.03
2017-12-11T14:23:44.962Z,174.20
2017-12-11T14:26:12.578Z,152.23
2017-12-11T14:28:40.250Z,162.47
2017-12-11T14:31:08.012Z,153.07
2017-12-11T14:33:35.627Z,166.43
2017-12-11T14:36:03.244Z,163.57
2017-12-11T14:38:30.923Z,176.37
2017-12-11T14:40:58.548Z,181.53
2017-12-11T14:43:26.163Z,252.40
2017-12-11T14:45:53.841Z,238.67
2017-12-11T14:48:21.466Z,299.93
2017-12-11T14:50:49.086Z,273.67
2017-12-11T14:53:16.788Z,234.10
2017-12-11T14:55:44.408Z,249.90
2017-12-11T14:58:12.032Z,198.97
2017-12-11T15:00:39.755Z,155.70
2017-12-11T15:03:07.426Z,144.37
2017-12-11T15:05:35.097Z,158.67
2017-12-11T15:08:02.775Z,219.93
2017-12-11T15:10:30.398Z,236.67
2017-12-11T15:12:58.037Z,235.27
2017-12-11T15:15:25.772Z,284.90
2017-12-11T15:17:53.391Z,265.33
2017-12-11T15:20:21.011Z,255.43
2017-12-11T15:22:48.706Z,283.07
2017-12-11T15:25:16.325Z,213.00
2017-12-11T15:27:44.012Z,247.70
2017-12-11T15:30:11.702Z,230.57
2017-12-11T15:32:39.335Z,296.50
2017-12-11T15:35:06.960Z,293.57
2017-12-11T15:37:34.652Z,274.77
2017-12-11T15:40:02.321Z,264.43
2017-12-11T15:42:29.971Z,302.77
2017-12-11T15:44:57.644Z,335.53
2017-12-11T15:47:25.280Z,347.33
2017-12-11T15:49:52.910Z,370.57
2017-12-11T15:52:20.585Z,419.53
2017-12-11T15:54:48.224Z,395.33
2017-12-11T15:57:15.849Z,430.50
2017-12-11T15:59:43.544Z,427.70
2017-12-11T16:02:11.168Z,432.40
2017-12-11T16:04:38.899Z,392.03
2017-12-11T16:07:06.581Z,364.40
2017-12-11T16:09:34.209Z,328.30
2017-12-11T16:12:01.847Z,333.07
2017-12-11T16:14:29.520Z,350.50
2017-12-11T16:16:57.200Z,355.10
2017-12-11T16:19:24.823Z,345.27
2017-12-11T16:21:52.513Z,269.60
2017-12-11T16:24:20.137Z,271.30
2017-12-11T16:26:47.837Z,270.00
2017-12-11T16:29:15.520Z,254.30
2017-12-11T16:31:43.193Z,221.47
2017-12-11T16:34:10.875Z,313.87
2017-12-11T16:36:38.542Z,274.53
2017-12-11T16:39:06.162Z,282.40
2017-12-11T16:41:33.787Z,266.67
2017-12-11T16:44:01.524Z,379.80
2017-12-11T16:46:29.151Z,345.10
2017-12-11T16:48:56.831Z,396.10
2017-12-11T16:51:24.592Z,395.97
2017-12-11T16:53:52.241Z,412.07
2017-12-11T16:56:19.862Z,405.70
2017-12-11T16:58:47.628Z,362.80
2017-12-11T17:01:15.274Z,385.20
2017-12-11T17:03:42.910Z,420.57
2017-12-11T17:06:10.599Z,391.83
2017-12-11T17:08:38.287Z,392.50
2017-12-11T17:11:05.983Z,349.17
2017-12-11T17:13:33.742Z,341.97
2017-12-11T17:16:01.440Z,392.93
2017-12-11T17:18:29.060Z,436.07
2017-12-11T17:20:56.794Z,437.13
2017-12-11T17:23:24.417Z,458.50
2017-12-11T17:25:52.044Z,429.30
2017-12-11T17:28:19.727Z,450.77
2017-12-11T17:30:47.358Z,472.87
2017-12-11T17:33:15.037Z,460.57
2017-12-11T17:35:42.712Z,433.70
2017-12-11T17:38:10.404Z,438.90
2017-12-11T17:40:38.035Z,429.87
2017-12-11T17:43:05.749Z,430.50
2017-12-11T17:45:33.380Z,418.20
2017-12-11T17:48:01.072Z,348.57
2017-12-11T17:50:28.759Z,369.77
2017-12-11T17:52:56.394Z,357.40
2017-12-11T17:55:24.091Z,282.40
2017-12-11T17:57:51.820Z,245.17
2017-12-11T18:00:19.495Z,302.73
2017-12-11T18:02:47.208Z,330.50
2017-12-11T18:05:14.910Z,298.73
2017-12-11T18:07:42.545Z,276.67
2017-12-11T18:10:10.179Z,232.63
2017-12-11T18:12:37.913Z,251.27
2017-12-11T18:15:05.608Z,253.80
2017-12-11T18:17:33.224Z,238.40
2017-12-11T18:20:00.988Z,271.13
2017-12-11T18:22:28.627Z,260.43
2017-12-11T18:24:56.280Z,157.37
2017-12-11T18:27:23.963Z,217.30
2017-12-11T18:29:51.635Z,185.00
2017-12-11T18:32:19.355Z,142.40
2017-12-11T18:34:47.080Z,204.83
2017-12-11T18:37:14.703Z,251.93
2017-12-11T18:39:42.343Z,213.77
2017-12-11T18:42:10.151Z,213.90
2017-12-11T18:44:37.760Z,195.27
2017-12-11T18:47:05.428Z,235.90
2017-12-11T18:49:33.156Z,207.13
2017-12-11T18:52:00.836Z,220.17
2017-12-11T18:54:29.680Z,218.27
2017-12-11T18:56:57.413Z,207.50
2017-12-11T18:59:25.099Z,204.83
2017-12-11T19:01:52.811Z,266.83
2017-12-11T19:04:20.521Z,318.30
2017-12-11T19:06:48.152Z,326.53
2017-12-11T19:09:15.844Z,331.47
2017-12-11T19:11:43.573Z,346.07
2017-12-11T19:14:11.340Z,320.20
2017-12-11T19:16:39.036Z,318.20
2017-12-11T19:19:06.724Z,329.93
2017-12-11T19:21:34.432Z,250.77
2017-12-11T19:24:02.064Z,252.77
2017-12-11T19:26:29.816Z,251.33
2017-12-11T19:28:57.516Z,242.63
2017-12-11T19:31:25.204Z,244.20
2017-12-11T19:33:52.986Z,227.73
2017-12-11T19:36:20.612Z,241.37
2017-12-11T19:38:48.239Z,271.57
2017-12-11T19:41:15.931Z,258.83
2017-12-11T19:43:43.567Z,391.63
2017-12-11T19:46:11.192Z,256.60
2017-12-11T19:48:38.934Z,216.77
2017-12-11T19:51:06.627Z,263.83
2017-12-11T19:53:34.256Z,294.00
2017-12-11T19:56:01.959Z,375.03
2017-12-11T19:58:29.714Z,343.80
2017-12-11T20:00:57.324Z,289.87
2017-12-11T20:03:25.007Z,279.47
2017-12-11T20:05:52.703Z,327.20
2017-12-11T20:08:20.330Z,374.93
2017-12-11T20:10:48.068Z,443.63
2017-12-11T20:13:15.744Z,441.33
2017-12-11T20:15:43.354Z,450.43
2017-12-11T20:18:11.095Z,421.17
2017-12-11T20:20:38.720Z,408.17
2017-12-11T20:23:06.351Z,317.67
2017-12-11T20:25:34.075Z,145.37
2017-12-11T20:28:01.688Z,133.00
2017-12-11T20:30:29.309Z,181.17
2017-12-11T20:32:56.992Z,182.80
2017-12-11T20:35:24.617Z,165.10
2017-12-11T20:37:52.235Z,143.43
2017-12-11T20:40:19.927Z,141.07
2017-12-11T20:42:47.560Z,134.60
2017-12-11T20:45:15.179Z,134.67
2017-12-11T20:47:42.872Z,153.07
2017-12-11T20:50:10.487Z,133.77
2017-12-11T20:52:38.181Z,108.90
2017-12-11T20:55:05.855Z,138.37
2017-12-11T20:57:33.487Z,162.10
2017-12-11T21:00:01.177Z,161.80
2017-12-11T21:02:28.856Z,133.00
2017-12-11T21:04:56.547Z,157.50
2017-12-11T21:07:24.172Z,180.77
2017-12-11T21:09:51.866Z,185.43
2017-12-11T21:12:19.490Z,157.87
2017-12-11T21:14:47.115Z,150.47
2017-12-11T21:17:14.795Z,103.67
2017-12-11T21:19:42.432Z,191.80
2017-12-11T21:22:10.070Z,204.20
2017-12-11T21:24:37.816Z,211.97
2017-12-11T21:27:05.446Z,217.13
2017-12-11T21:29:33.107Z,206.77
2017-12-11T21:32:00.798Z,197.73
2017-12-11T21:34:28.484Z,172.50
2017-12-11T21:36:56.113Z,173.20
2017-12-11T21:39:23.803Z,183.53
2017-12-11T21:41:51.452Z,173.07
2017-12-11T21:44:19.081Z,232.23
2017-12-11T21:46:46.763Z,299.13
2017-12-11T21:49:14.403Z,268.17
2017-12-11T21:51:42.092Z,291.00
2017-12-11T21:54:09.867Z,259.27
2017-12-11T21:56:37.544Z,237.27
2017-12-11T21:59:05.171Z,234.13
2017-12-11T22:01:32.846Z,205.63
2017-12-11T22:04:00.472Z,198.40
2017-12-11T22:06:28.216Z,212.90
2017-12-11T22:08:55.901Z,208.33
2017-12-11T22:11:23.520Z,198.03
2017-12-11T22:13:51.237Z,220.90
2017-12-11T22:16:18.927Z,184.33
2017-12-11T22:18:46.555Z,204.27
2017-12-11T22:21:14.212Z,194.87
2017-12-11T22:23:41.899Z,211.83
2017-12-11T22:26:09.523Z,174.47
2017-12-11T22:28:37.201Z,171.13
2017-12-11T22:31:04.892Z,153.23
2017-12-11T22:33:32.510Z,154.43
2017-12-11T22:36:00.135Z,173.03
2017-12-11T22:38:27.810Z,156.10
2017-12-11T22:40:55.431Z,143.43
2017-12-11T22:43:23.125Z,154.97
2017-12-11T22:45:50.838Z,134.33
2017-12-11T22:48:18.517Z,122.07
2017-12-11T22:50:46.203Z,125.77
2017-12-11T22:53:13.883Z,136.07
2017-12-11T22:55:41.504Z,167.37
2017-12-11T22:58:09.190Z,151.33
2017-12-11T23:00:36.856Z,149.57
2017-12-11T23:03:04.479Z,122.50
2017-12-11T23:05:32.100Z,136.80
2017-12-11T23:07:59.775Z,149.20
2017-12-11T23:10:27.400Z,156.60
2017-12-11T23:12:55.020Z,148.37
2017-12-11T23:15:22.767Z,172.00
2017-12-11T23:17:50.383Z,167.10
2017-12-11T23:20:18.006Z,155.03
2017-12-11T23:22:45.687Z,148.50
2017-12-11T23:25:13.303Z,140.07
2017-12-11T23:27:40.918Z,117.83
2017-12-11T23:30:08.593Z,130.20
2017-12-11T23:32:36.206Z,137.30
2017-12-11T23:35:03.827Z,109.47
2017-12-11T23:37:31.502Z,113.13
2017-12-11T23:39:59.185Z,108.70
2017-12-11T23:42:26.863Z,103.23
2017-12-11T23:44:54.559Z,87.17
2017-12-11T23:47:22.171Z,105.00
2017-12-11T23:49:49.860Z,97.23
2017-12-11T23:52:17.546Z,94.87
2017-12-11T23:54:45.171Z,100.80
2017-12-11T23:57:12.798Z,81.07
2017-12-11T23:59:40.528Z,75.60
